createdAt,value
2022-12-03T00:02:00.528Z,9.63
2022-12-03T00:04:22.160Z,10.70
2022-12-03T00:06:43.668Z,9.17
2022-12-03T00:09:05.514Z,11.10
2022-12-03T00:11:27.007Z,10.30
2022-12-03T00:13:48.769Z,10.53
2022-12-03T00:16:10.255Z,9.87
2022-12-03T00:18:31.750Z,10.17
2022-12-03T00:20:53.268Z,10.43
2022-12-03T00:23:14.704Z,10.00
2022-12-03T00:25:36.129Z,10.63
2022-12-03T00:27:57.604Z,9.97
2022-12-03T00:30:19.143Z,10.37
2022-12-03T00:32:40.593Z,10.53
2022-12-03T00:35:02.163Z,9.93
2022-12-03T00:37:23.592Z,10.27
2022-12-03T00:39:45.048Z,10.53
2022-12-03T00:42:06.519Z,9.80
2022-12-03T00:44:28.009Z,10.00
2022-12-03T00:46:49.526Z,9.90
2022-12-03T00:49:11.015Z,9.67
2022-12-03T00:51:32.479Z,10.17
2022-12-03T00:53:53.895Z,10.83
2022-12-03T00:56:15.478Z,10.03
2022-12-03T00:58:36.905Z,11.27
2022-12-03T01:00:58.427Z,10.90
2022-12-03T01:03:19.857Z,12.07
2022-12-03T01:05:41.307Z,11.67
2022-12-03T01:08:02.801Z,11.80
2022-12-03T01:10:24.369Z,11.23
2022-12-03T01:12:45.799Z,10.20
2022-12-03T01:15:07.944Z,10.17
2022-12-03T01:17:29.412Z,11.00
2022-12-03T01:19:52.603Z,10.93
2022-12-03T01:22:14.062Z,9.97
2022-12-03T01:24:35.586Z,10.40
2022-12-03T01:26:57.651Z,11.37
2022-12-03T01:29:19.150Z,10.60
2022-12-03T01:31:59.049Z,10.13
2022-12-03T01:34:20.565Z,10.03
2022-12-03T01:36:42.053Z,9.50
2022-12-03T01:39:04.665Z,9.90
2022-12-03T01:41:26.292Z,9.90
2022-12-03T01:43:48.397Z,9.90
2022-12-03T01:46:14.017Z,9.47
2022-12-03T01:48:37.833Z,9.67
2022-12-03T01:51:00.204Z,10.37
2022-12-03T01:53:21.933Z,10.43
2022-12-03T01:55:48.414Z,10.37
2022-12-03T01:58:13.915Z,9.97
2022-12-03T02:00:35.354Z,10.77
2022-12-03T02:03:01.788Z,10.87
2022-12-03T02:05:28.836Z,10.80
2022-12-03T02:07:50.614Z,11.13
2022-12-03T02:10:14.286Z,11.17
2022-12-03T02:12:43.842Z,11.90
2022-12-03T02:15:07.176Z,12.50
2022-12-03T02:17:28.954Z,12.80
2022-12-03T02:19:51.322Z,12.33
2022-12-03T02:22:26.998Z,12.53
2022-12-03T02:25:17.939Z,12.60
2022-12-03T02:27:39.869Z,12.07
2022-12-03T02:30:01.431Z,13.03
2022-12-03T02:32:23.565Z,11.93
2022-12-03T02:34:46.210Z,12.03
2022-12-03T02:37:15.854Z,12.93
2022-12-03T02:39:40.266Z,13.33
2022-12-03T02:42:20.681Z,13.53
2022-12-03T02:44:42.311Z,12.63
2022-12-03T02:47:04.099Z,13.27
2022-12-03T02:49:25.653Z,12.87
2022-12-03T02:51:47.132Z,14.67
2022-12-03T02:54:08.638Z,13.03
2022-12-03T02:56:32.450Z,14.10
2022-12-03T02:58:58.373Z,13.40
2022-12-03T03:01:20.067Z,12.20
2022-12-03T03:03:41.720Z,14.10
2022-12-03T03:06:06.801Z,15.63
2022-12-03T03:08:29.382Z,13.93
2022-12-03T03:10:51.541Z,15.43
2022-12-03T03:13:15.540Z,15.17
2022-12-03T03:15:38.831Z,14.60
2022-12-03T03:18:00.261Z,15.90
2022-12-03T03:20:21.812Z,14.50
2022-12-03T03:22:43.318Z,15.13
2022-12-03T03:25:07.267Z,15.40
2022-12-03T03:27:29.659Z,16.03
2022-12-03T03:29:51.424Z,16.70
2022-12-03T03:32:12.898Z,14.37
2022-12-03T03:34:34.388Z,15.53
2022-12-03T03:36:56.095Z,14.77
2022-12-03T03:39:17.570Z,15.57
2022-12-03T03:41:39.142Z,15.43
2022-12-03T03:44:00.720Z,16.40
2022-12-03T03:46:22.815Z,16.67
2022-12-03T03:48:44.352Z,17.10
2022-12-03T03:51:09.347Z,16.80
2022-12-03T03:53:31.023Z,17.60
2022-12-03T03:55:52.941Z,16.17
2022-12-03T03:58:14.434Z,16.47
2022-12-03T04:00:36.881Z,17.40
2022-12-03T04:02:58.318Z,16.83
2022-12-03T04:05:21.813Z,18.27
2022-12-03T04:07:43.461Z,18.87
2022-12-03T04:10:25.550Z,17.40
2022-12-03T04:12:56.032Z,17.10
2022-12-03T04:15:17.485Z,17.10
2022-12-03T04:17:38.903Z,17.17
2022-12-03T04:20:00.360Z,15.17
2022-12-03T04:22:39.757Z,16.40
2022-12-03T04:25:19.754Z,16.70
2022-12-03T04:27:59.551Z,16.80
2022-12-03T04:30:20.987Z,15.13
2022-12-03T04:33:01.198Z,14.43
2022-12-03T04:35:41.368Z,14.90
2022-12-03T04:38:02.871Z,13.30
2022-12-03T04:40:42.902Z,14.10
2022-12-03T04:43:04.330Z,16.60
2022-12-03T04:45:25.847Z,16.00
2022-12-03T04:47:47.278Z,17.10
2022-12-03T04:50:09.111Z,17.10
2022-12-03T04:52:30.571Z,17.37
2022-12-03T04:54:52.281Z,16.33
2022-12-03T04:57:13.919Z,18.63
2022-12-03T04:59:36.566Z,18.00
2022-12-03T05:01:58.045Z,16.90
2022-12-03T05:04:19.514Z,16.97
2022-12-03T05:06:41.771Z,17.07
2022-12-03T05:09:03.310Z,16.37
2022-12-03T05:11:24.800Z,17.40
2022-12-03T05:13:46.229Z,16.73
2022-12-03T05:16:07.977Z,16.67
2022-12-03T05:18:29.433Z,15.73
2022-12-03T05:20:53.533Z,18.23
2022-12-03T05:23:15.307Z,16.80
2022-12-03T05:25:36.989Z,16.93
2022-12-03T05:27:58.519Z,16.90
2022-12-03T05:30:20.103Z,17.53
2022-12-03T05:32:41.560Z,16.00
2022-12-03T05:35:03.056Z,17.20
2022-12-03T05:37:24.509Z,17.70
2022-12-03T05:39:46.037Z,16.03
2022-12-03T05:42:26.180Z,16.70
2022-12-03T05:44:47.714Z,16.07
2022-12-03T05:47:09.178Z,15.53
2022-12-03T05:49:30.616Z,17.53
2022-12-03T05:51:58.031Z,16.50
2022-12-03T05:54:19.968Z,16.53
2022-12-03T05:56:41.466Z,14.90
2022-12-03T05:59:02.905Z,16.33
2022-12-03T06:01:24.351Z,14.87
2022-12-03T06:03:45.884Z,17.53
2022-12-03T06:06:07.661Z,16.20
2022-12-03T06:08:29.161Z,15.73
2022-12-03T06:10:50.699Z,16.83
2022-12-03T06:13:12.132Z,17.43
2022-12-03T06:15:36.351Z,16.83
2022-12-03T06:18:01.786Z,16.53
2022-12-03T06:20:23.244Z,16.53
2022-12-03T06:22:45.013Z,15.50
2022-12-03T06:25:07.249Z,16.17
2022-12-03T06:27:28.894Z,16.33
2022-12-03T06:29:50.382Z,16.83
2022-12-03T06:32:11.848Z,16.70
2022-12-03T06:34:33.522Z,17.23
2022-12-03T06:36:54.983Z,18.10
2022-12-03T06:39:17.415Z,16.67
2022-12-03T06:41:39.072Z,19.87
2022-12-03T06:44:00.633Z,19.70
2022-12-03T06:46:22.133Z,19.53
2022-12-03T06:48:43.620Z,21.37
2022-12-03T06:51:06.079Z,20.97
2022-12-03T06:53:27.518Z,19.83
2022-12-03T06:55:48.968Z,23.10
2022-12-03T06:58:10.532Z,20.70
2022-12-03T07:00:31.998Z,19.87
2022-12-03T07:02:53.513Z,19.40
2022-12-03T07:05:15.183Z,18.73
2022-12-03T07:07:36.755Z,18.83
2022-12-03T07:09:58.439Z,18.27
2022-12-03T07:12:19.909Z,17.37
2022-12-03T07:14:41.345Z,18.47
2022-12-03T07:17:02.787Z,18.87
2022-12-03T07:19:29.076Z,16.40
2022-12-03T07:21:53.671Z,18.70
2022-12-03T07:24:15.181Z,17.43
2022-12-03T07:26:36.667Z,18.30
2022-12-03T07:28:58.594Z,19.07
2022-12-03T07:31:20.278Z,18.33
2022-12-03T07:33:42.222Z,18.10
2022-12-03T07:36:03.833Z,20.67
2022-12-03T07:38:25.274Z,18.80
2022-12-03T07:40:46.733Z,17.87
2022-12-03T07:43:08.179Z,18.67
2022-12-03T07:45:29.642Z,19.47
2022-12-03T07:47:51.088Z,19.07
2022-12-03T07:50:12.612Z,17.50
2022-12-03T07:52:34.051Z,17.67
2022-12-03T07:54:55.927Z,17.83
2022-12-03T07:57:17.570Z,18.77
2022-12-03T07:59:39.017Z,18.97
2022-12-03T08:02:00.593Z,17.30
2022-12-03T08:04:22.271Z,17.80
2022-12-03T08:06:43.750Z,17.50
2022-12-03T08:09:05.177Z,18.23
2022-12-03T08:11:28.751Z,17.60
2022-12-03T08:13:50.199Z,16.80
2022-12-03T08:16:18.504Z,18.03
2022-12-03T08:18:40.007Z,16.37
2022-12-03T08:21:01.572Z,17.67
2022-12-03T08:23:24.903Z,17.37
2022-12-03T08:25:48.403Z,34.70
2022-12-03T08:28:36.139Z,26.63
2022-12-03T08:31:11.943Z,23.03
2022-12-03T08:33:36.710Z,18.93
2022-12-03T08:35:58.161Z,20.27
2022-12-03T08:38:22.691Z,21.20
2022-12-03T08:40:48.276Z,21.20
2022-12-03T08:43:26.929Z,19.53
2022-12-03T08:45:50.189Z,21.00
2022-12-03T08:48:24.308Z,17.37
2022-12-03T08:50:46.065Z,18.67
2022-12-03T08:53:13.308Z,19.70
2022-12-03T08:55:37.819Z,17.23
2022-12-03T08:58:00.105Z,18.20
2022-12-03T09:00:24.168Z,23.27
2022-12-03T09:02:49.556Z,19.60
2022-12-03T09:05:19.569Z,18.83
2022-12-03T09:07:41.126Z,18.40
2022-12-03T09:10:02.660Z,19.83
2022-12-03T09:12:24.088Z,17.43
2022-12-03T09:14:45.569Z,18.77
2022-12-03T09:17:07.222Z,18.93
2022-12-03T09:19:31.149Z,19.10
2022-12-03T09:21:54.175Z,18.90
2022-12-03T09:24:15.655Z,18.50
2022-12-03T09:26:37.124Z,18.53
2022-12-03T09:28:58.611Z,19.20
2022-12-03T09:31:20.191Z,20.20
2022-12-03T09:33:42.550Z,20.00
2022-12-03T09:36:04.303Z,22.07
2022-12-03T09:38:26.499Z,21.40
2022-12-03T09:40:47.994Z,22.00
2022-12-03T09:43:09.709Z,22.47
2022-12-03T09:45:31.309Z,22.47
2022-12-03T09:47:53.003Z,22.07
2022-12-03T09:50:20.215Z,20.90
2022-12-03T09:52:41.764Z,20.20
2022-12-03T09:55:15.148Z,20.17
2022-12-03T09:57:36.600Z,19.37
2022-12-03T09:59:58.592Z,17.60
2022-12-03T10:02:28.683Z,19.83
2022-12-03T10:04:50.677Z,21.07
2022-12-03T10:07:12.300Z,20.07
2022-12-03T10:09:33.746Z,20.93
2022-12-03T10:11:57.345Z,20.93
2022-12-03T10:14:19.977Z,21.20
2022-12-03T10:16:41.997Z,21.67
2022-12-03T10:19:03.527Z,20.07
2022-12-03T10:21:38.674Z,19.73
2022-12-03T10:24:23.790Z,21.07
2022-12-03T10:26:46.570Z,19.93
2022-12-03T10:29:31.609Z,20.93
2022-12-03T10:31:57.782Z,21.50
2022-12-03T10:34:32.047Z,21.03
2022-12-03T10:37:26.125Z,21.27
2022-12-03T10:40:09.774Z,21.20
2022-12-03T10:42:37.631Z,20.73
2022-12-03T10:45:16.421Z,21.53
2022-12-03T10:47:38.112Z,21.70
2022-12-03T10:50:05.999Z,21.17
2022-12-03T10:52:29.406Z,22.53
2022-12-03T10:54:51.056Z,22.60
2022-12-03T10:57:13.561Z,21.37
2022-12-03T10:59:42.849Z,22.07
2022-12-03T11:02:17.053Z,21.70
2022-12-03T11:04:40.596Z,22.43
2022-12-03T11:07:03.277Z,23.67
2022-12-03T11:09:33.455Z,22.87
2022-12-03T11:11:55.234Z,23.33
2022-12-03T11:14:52.110Z,24.63
2022-12-03T11:17:13.869Z,21.80
2022-12-03T11:19:44.686Z,22.30
2022-12-03T11:22:06.114Z,21.57
2022-12-03T11:24:27.657Z,23.13
2022-12-03T11:26:52.089Z,21.80
2022-12-03T11:29:14.694Z,22.47
2022-12-03T11:31:38.059Z,21.47
2022-12-03T11:34:18.244Z,21.07
2022-12-03T11:37:11.736Z,21.50
2022-12-03T11:39:45.531Z,20.40
2022-12-03T11:42:28.445Z,21.60
2022-12-03T11:45:09.897Z,21.03
2022-12-03T11:47:38.843Z,20.40
2022-12-03T11:50:00.745Z,20.20
2022-12-03T11:52:26.753Z,21.33
2022-12-03T11:55:24.336Z,21.53
2022-12-03T11:57:45.908Z,20.87
2022-12-03T12:00:20.246Z,21.20
2022-12-03T12:02:42.038Z,21.77
2022-12-03T12:05:18.160Z,21.63
2022-12-03T12:07:39.634Z,23.40
2022-12-03T12:10:01.127Z,22.70
2022-12-03T12:12:31.622Z,21.77
2022-12-03T12:14:53.068Z,23.87
2022-12-03T12:17:49.836Z,24.80
2022-12-03T12:20:23.292Z,22.33
2022-12-03T12:22:44.773Z,26.90
2022-12-03T12:25:31.911Z,25.27
2022-12-03T12:27:55.048Z,26.00
2022-12-03T12:30:19.814Z,26.00
2022-12-03T12:33:00.278Z,26.20
2022-12-03T12:35:29.930Z,26.07
2022-12-03T12:38:07.095Z,26.70
2022-12-03T12:40:31.959Z,30.87
2022-12-03T12:43:24.897Z,25.80
2022-12-03T12:45:47.101Z,25.07
2022-12-03T12:48:14.222Z,24.50
2022-12-03T12:50:37.455Z,25.87
2022-12-03T12:53:26.224Z,25.33
2022-12-03T12:55:57.083Z,25.03
2022-12-03T12:58:19.861Z,26.47
2022-12-03T13:00:41.890Z,23.73
2022-12-03T13:03:05.307Z,24.43
2022-12-03T13:05:38.136Z,24.33
2022-12-03T13:07:59.686Z,23.67
2022-12-03T13:10:39.299Z,24.87
2022-12-03T13:13:14.172Z,24.40
2022-12-03T13:15:42.491Z,23.10
2022-12-03T13:18:27.215Z,24.53
2022-12-03T13:20:48.743Z,23.73
2022-12-03T13:23:33.255Z,26.00
2022-12-03T13:26:02.005Z,23.13
2022-12-03T13:28:29.659Z,21.27
2022-12-03T13:30:51.511Z,23.20
2022-12-03T13:33:19.955Z,22.70
2022-12-03T13:35:43.189Z,23.13
2022-12-03T13:38:13.738Z,22.90
2022-12-03T13:40:35.315Z,24.07
2022-12-03T13:42:59.839Z,22.80
2022-12-03T13:45:27.086Z,24.10
2022-12-03T13:48:06.346Z,24.00
2022-12-03T13:50:33.893Z,25.80
2022-12-03T13:52:55.846Z,25.43
2022-12-03T13:55:26.473Z,26.83
2022-12-03T13:57:47.981Z,24.97
2022-12-03T14:00:11.115Z,25.50
2022-12-03T14:02:32.683Z,24.93
2022-12-03T14:04:59.834Z,23.27
2022-12-03T14:07:21.839Z,26.47
2022-12-03T14:09:43.302Z,23.63
2022-12-03T14:12:23.400Z,23.03
2022-12-03T14:14:44.943Z,26.87
2022-12-03T14:17:06.676Z,22.60
2022-12-03T14:19:28.248Z,22.87
2022-12-03T14:21:49.705Z,22.87
2022-12-03T14:24:11.134Z,22.57
2022-12-03T14:26:32.630Z,23.27
2022-12-03T14:28:54.147Z,25.00
2022-12-03T14:31:15.629Z,36.03
2022-12-03T14:33:37.119Z,44.27
2022-12-03T14:35:59.143Z,31.67
2022-12-03T14:38:20.613Z,34.80
2022-12-03T14:40:42.427Z,29.57
2022-12-03T14:43:03.860Z,37.60
2022-12-03T14:45:27.593Z,28.27
2022-12-03T14:47:49.045Z,26.87
2022-12-03T14:50:14.204Z,25.63
2022-12-03T14:52:36.504Z,29.23
2022-12-03T14:54:57.950Z,27.00
2022-12-03T14:57:19.468Z,30.13
2022-12-03T14:59:42.249Z,29.17
2022-12-03T15:02:03.832Z,29.40
2022-12-03T15:04:25.503Z,26.60
2022-12-03T15:06:46.957Z,24.73
2022-12-03T15:09:08.635Z,25.40
2022-12-03T15:11:30.193Z,23.80
2022-12-03T15:13:51.763Z,24.53
2022-12-03T15:16:13.286Z,24.70
2022-12-03T15:18:35.029Z,24.40
2022-12-03T15:20:57.513Z,26.50
2022-12-03T15:23:18.972Z,33.33
2022-12-03T15:25:40.536Z,33.83
2022-12-03T15:28:03.433Z,30.20
2022-12-03T15:30:25.006Z,25.43
2022-12-03T15:32:47.080Z,25.97
2022-12-03T15:35:08.917Z,24.47
2022-12-03T15:37:30.350Z,24.27
2022-12-03T15:39:51.796Z,24.23
2022-12-03T15:42:14.677Z,25.13
2022-12-03T15:44:36.098Z,26.00
2022-12-03T15:46:57.561Z,25.17
2022-12-03T15:49:19.970Z,26.40
2022-12-03T15:51:41.450Z,24.83
2022-12-03T15:54:02.985Z,25.43
2022-12-03T15:56:24.544Z,24.97
2022-12-03T15:58:46.016Z,26.43
2022-12-03T16:01:08.847Z,25.97
2022-12-03T16:03:30.370Z,25.27
2022-12-03T16:05:51.889Z,24.53
2022-12-03T16:08:13.384Z,22.83
2022-12-03T16:10:34.859Z,24.27
2022-12-03T16:12:56.283Z,25.40
2022-12-03T16:15:22.114Z,22.40
2022-12-03T16:17:46.637Z,22.67
2022-12-03T16:20:08.432Z,21.53
2022-12-03T16:22:29.900Z,21.63
2022-12-03T16:24:51.342Z,21.57
2022-12-03T16:27:12.793Z,22.67
2022-12-03T16:29:34.246Z,22.47
2022-12-03T16:31:55.693Z,21.30
2022-12-03T16:34:17.174Z,21.37
2022-12-03T16:36:38.934Z,21.30
2022-12-03T16:39:00.461Z,22.10
2022-12-03T16:41:22.449Z,23.17
2022-12-03T16:43:46.914Z,22.50
2022-12-03T16:46:10.675Z,22.83
2022-12-03T16:48:32.155Z,24.07
2022-12-03T16:50:53.700Z,19.37
2022-12-03T16:53:15.131Z,20.90
2022-12-03T16:55:36.570Z,21.57
2022-12-03T16:57:58.017Z,20.00
2022-12-03T17:00:21.822Z,19.90
2022-12-03T17:02:45.164Z,21.03
2022-12-03T17:05:06.862Z,22.80
2022-12-03T17:07:28.373Z,22.17
2022-12-03T17:09:49.863Z,21.73
2022-12-03T17:12:11.327Z,21.37
2022-12-03T17:14:33.523Z,19.27
2022-12-03T17:16:55.296Z,19.83
2022-12-03T17:19:17.348Z,20.43
2022-12-03T17:21:38.871Z,19.73
2022-12-03T17:24:00.411Z,20.67
2022-12-03T17:26:21.925Z,20.17
2022-12-03T17:28:43.352Z,20.07
2022-12-03T17:31:05.066Z,20.33
2022-12-03T17:33:26.643Z,18.73
2022-12-03T17:35:48.627Z,20.80
2022-12-03T17:38:11.158Z,21.03
2022-12-03T17:40:32.643Z,18.43
2022-12-03T17:42:54.094Z,21.63
2022-12-03T17:45:15.619Z,22.43
2022-12-03T17:47:37.169Z,45.57
2022-12-03T17:49:58.652Z,32.37
2022-12-03T17:52:20.182Z,28.43
2022-12-03T17:55:02.367Z,22.20
2022-12-03T17:57:23.241Z,19.67
2022-12-03T17:59:44.713Z,18.57
2022-12-03T18:02:07.120Z,19.17
2022-12-03T18:04:28.684Z,20.03
2022-12-03T18:06:50.262Z,18.47
2022-12-03T18:09:11.711Z,19.40
2022-12-03T18:11:33.794Z,19.43
2022-12-03T18:13:55.223Z,17.67
2022-12-03T18:16:16.863Z,16.50
2022-12-03T18:18:38.391Z,17.87
2022-12-03T18:21:02.174Z,16.43
2022-12-03T18:23:23.674Z,14.70
2022-12-03T18:25:45.216Z,12.50
2022-12-03T18:28:06.758Z,11.77
2022-12-03T18:30:28.237Z,10.67
2022-12-03T18:32:50.685Z,10.50
2022-12-03T18:35:12.228Z,10.83
2022-12-03T18:37:33.973Z,10.80
2022-12-03T18:39:57.340Z,10.77
2022-12-03T18:42:21.630Z,11.33
2022-12-03T18:44:49.411Z,10.93
2022-12-03T18:47:19.018Z,10.63
2022-12-03T18:49:41.147Z,11.13
2022-12-03T18:52:02.618Z,11.47
2022-12-03T18:54:24.038Z,11.10
2022-12-03T18:56:45.556Z,11.10
2022-12-03T18:59:07.607Z,12.57
2022-12-03T19:01:29.154Z,13.23
2022-12-03T19:03:50.679Z,12.30
2022-12-03T19:06:19.097Z,11.80
2022-12-03T19:08:40.887Z,13.27
2022-12-03T19:11:02.357Z,13.30
2022-12-03T19:13:25.444Z,12.97
2022-12-03T19:15:49.004Z,12.83
2022-12-03T19:18:10.495Z,13.67
2022-12-03T19:20:31.992Z,14.00
2022-12-03T19:22:53.422Z,13.80
2022-12-03T19:25:14.997Z,13.80
2022-12-03T19:27:36.552Z,12.93
2022-12-03T19:29:58.143Z,13.73
2022-12-03T19:32:19.727Z,14.73
2022-12-03T19:34:41.166Z,14.20
2022-12-03T19:37:02.645Z,14.77
2022-12-03T19:39:24.204Z,15.10
2022-12-03T19:41:45.726Z,13.77
2022-12-03T19:44:10.880Z,14.10
2022-12-03T19:46:32.710Z,12.87
2022-12-03T19:48:54.694Z,13.67
2022-12-03T19:51:33.725Z,13.80
2022-12-03T19:53:57.356Z,13.80
2022-12-03T19:56:19.653Z,13.47
2022-12-03T19:58:43.170Z,13.37
2022-12-03T20:01:11.055Z,13.27
2022-12-03T20:03:32.552Z,14.40
2022-12-03T20:05:54.747Z,13.73
2022-12-03T20:08:16.258Z,13.67
2022-12-03T20:10:37.883Z,14.67
2022-12-03T20:12:59.710Z,14.47
2022-12-03T20:15:21.254Z,14.23
2022-12-03T20:17:42.796Z,16.17
2022-12-03T20:20:05.130Z,14.93
2022-12-03T20:22:26.671Z,14.00
2022-12-03T20:24:48.167Z,14.37
2022-12-03T20:27:09.624Z,15.37
2022-12-03T20:29:31.118Z,14.83
2022-12-03T20:31:53.338Z,14.93
2022-12-03T20:34:14.887Z,13.97
2022-12-03T20:36:37.084Z,14.10
2022-12-03T20:39:01.000Z,14.73
2022-12-03T20:41:22.529Z,13.63
2022-12-03T20:43:44.684Z,14.40
2022-12-03T20:46:23.907Z,14.50
2022-12-03T20:48:46.309Z,14.73
2022-12-03T20:51:10.643Z,14.00
2022-12-03T20:53:32.856Z,13.87
2022-12-03T20:55:56.293Z,13.80
2022-12-03T20:58:17.739Z,14.37
2022-12-03T21:00:39.198Z,15.10
2022-12-03T21:03:00.676Z,14.33
2022-12-03T21:05:22.193Z,15.10
2022-12-03T21:07:43.732Z,20.63
2022-12-03T21:10:05.708Z,21.87
2022-12-03T21:12:27.654Z,18.97
2022-12-03T21:14:49.135Z,15.73
2022-12-03T21:17:10.677Z,14.00
2022-12-03T21:19:32.197Z,12.83
2022-12-03T21:21:53.736Z,12.60
2022-12-03T21:24:15.269Z,11.80
2022-12-03T21:26:36.871Z,11.70
2022-12-03T21:28:58.376Z,12.03
2022-12-03T21:31:22.912Z,11.43
2022-12-03T21:33:44.535Z,10.67
2022-12-03T21:36:07.078Z,12.10
2022-12-03T21:38:29.995Z,11.73
2022-12-03T21:40:51.933Z,11.97
2022-12-03T21:43:13.393Z,12.50
2022-12-03T21:45:34.872Z,12.80
2022-12-03T21:47:56.316Z,12.17
2022-12-03T21:50:17.896Z,11.10
2022-12-03T21:52:39.427Z,12.07
2022-12-03T21:55:00.901Z,12.57
2022-12-03T21:57:22.374Z,11.43
2022-12-03T21:59:43.853Z,11.43
2022-12-03T22:02:05.431Z,10.47
2022-12-03T22:04:26.952Z,11.63
2022-12-03T22:06:48.484Z,11.73
2022-12-03T22:09:09.980Z,11.90
2022-12-03T22:11:31.519Z,12.17
2022-12-03T22:13:54.533Z,10.60
2022-12-03T22:16:21.124Z,11.53
2022-12-03T22:18:43.162Z,11.17
2022-12-03T22:21:06.813Z,12.70
2022-12-03T22:23:28.253Z,12.47
2022-12-03T22:26:01.087Z,11.93
2022-12-03T22:28:22.534Z,11.47
2022-12-03T22:30:44.053Z,11.17
2022-12-03T22:33:05.607Z,11.47
2022-12-03T22:35:27.092Z,11.27
2022-12-03T22:37:48.617Z,12.00
2022-12-03T22:40:10.478Z,11.80
2022-12-03T22:42:32.160Z,11.60
2022-12-03T22:44:53.646Z,11.87
2022-12-03T22:47:15.178Z,12.07
2022-12-03T22:49:36.643Z,11.53
2022-12-03T22:51:58.109Z,12.10
2022-12-03T22:54:23.953Z,12.37
2022-12-03T22:56:45.859Z,12.50
2022-12-03T22:59:07.435Z,12.40
2022-12-03T23:01:37.384Z,11.83
2022-12-03T23:04:00.045Z,11.77
2022-12-03T23:06:22.345Z,11.73
2022-12-03T23:08:44.121Z,11.60
2022-12-03T23:11:06.151Z,10.83
2022-12-03T23:13:27.612Z,11.57
2022-12-03T23:15:51.704Z,10.77
2022-12-03T23:18:13.719Z,11.97
2022-12-03T23:20:42.035Z,11.10
2022-12-03T23:23:03.472Z,10.97
2022-12-03T23:25:24.940Z,11.40
2022-12-03T23:27:47.171Z,10.83
2022-12-03T23:30:09.954Z,10.63
2022-12-03T23:32:31.483Z,10.40
2022-12-03T23:34:53.580Z,10.70
2022-12-03T23:37:15.060Z,10.90
2022-12-03T23:39:36.522Z,10.97
2022-12-03T23:41:58.018Z,10.00
2022-12-03T23:44:19.559Z,9.93
2022-12-03T23:46:41.055Z,11.97
2022-12-03T23:49:02.551Z,11.63
2022-12-03T23:51:25.009Z,10.67
2022-12-03T23:53:46.875Z,10.90
2022-12-03T23:56:11.472Z,11.17
2022-12-03T23:58:33.911Z,11.00
